sensor_id;sensor_type;location;lat;lon;timestamp;P1;durP1;ratioP1;P2;durP2;ratioP2
32932;SDS011;19444;50.518;10.870;2022-11-20T00:00:26;19.67;;;8.82;;
32932;SDS011;19444;50.518;10.870;2022-11-20T00:03:23;16.92;;;8.30;;
32932;SDS011;19444;50.518;10.870;2022-11-20T00:06:20;18.15;;;8.90;;
32932;SDS011;19444;50.518;10.870;2022-11-20T00:09:18;16.45;;;7.78;;
32932;SDS011;19444;50.518;10.870;2022-11-20T00:12:15;17.70;;;8.10;;
32932;SDS011;19444;50.518;10.870;2022-11-20T00:15:12;15.60;;;7.60;;
32932;SDS011;19444;50.518;10.870;2022-11-20T00:18:09;18.63;;;8.45;;
32932;SDS011;19444;50.518;10.870;2022-11-20T00:21:07;17.92;;;7.63;;
32932;SDS011;19444;50.518;10.870;2022-11-20T00:24:17;16.30;;;7.68;;
32932;SDS011;19444;50.518;10.870;2022-11-20T00:27:14;17.92;;;7.25;;
32932;SDS011;19444;50.518;10.870;2022-11-20T00:30:11;16.80;;;7.50;;
32932;SDS011;19444;50.518;10.870;2022-11-20T00:33:10;19.55;;;8.38;;
32932;SDS011;19444;50.518;10.870;2022-11-20T00:36:08;16.65;;;7.25;;
32932;SDS011;19444;50.518;10.870;2022-11-20T00:39:14;16.10;;;7.50;;
32932;SDS011;19444;50.518;10.870;2022-11-20T00:42:11;16.73;;;9.00;;
32932;SDS011;19444;50.518;10.870;2022-11-20T00:45:07;16.52;;;8.25;;
32932;SDS011;19444;50.518;10.870;2022-11-20T00:48:04;19.35;;;7.63;;
32932;SDS011;19444;50.518;10.870;2022-11-20T00:51:01;17.70;;;7.72;;
32932;SDS011;19444;50.518;10.870;2022-11-20T00:53:58;14.90;;;7.18;;
32932;SDS011;19444;50.518;10.870;2022-11-20T00:56:56;13.40;;;6.60;;
32932;SDS011;19444;50.518;10.870;2022-11-20T00:59:53;16.80;;;8.15;;
32932;SDS011;19444;50.518;10.870;2022-11-20T01:02:50;12.20;;;6.75;;
32932;SDS011;19444;50.518;10.870;2022-11-20T01:05:47;16.17;;;8.20;;
32932;SDS011;19444;50.518;10.870;2022-11-20T01:08:44;13.88;;;7.75;;
32932;SDS011;19444;50.518;10.870;2022-11-20T01:11:42;16.17;;;7.18;;
32932;SDS011;19444;50.518;10.870;2022-11-20T01:14:40;14.85;;;7.47;;
32932;SDS011;19444;50.518;10.870;2022-11-20T01:17:37;12.50;;;7.22;;
32932;SDS011;19444;50.518;10.870;2022-11-20T01:20:34;19.15;;;9.10;;
32932;SDS011;19444;50.518;10.870;2022-11-20T01:23:32;15.07;;;7.70;;
32932;SDS011;19444;50.518;10.870;2022-11-20T01:26:32;17.33;;;7.72;;
32932;SDS011;19444;50.518;10.870;2022-11-20T01:29:30;16.63;;;7.55;;
32932;SDS011;19444;50.518;10.870;2022-11-20T01:32:27;21.90;;;9.38;;
32932;SDS011;19444;50.518;10.870;2022-11-20T01:35:24;18.73;;;7.97;;
32932;SDS011;19444;50.518;10.870;2022-11-20T01:38:21;16.40;;;7.78;;
32932;SDS011;19444;50.518;10.870;2022-11-20T01:41:19;17.00;;;7.93;;
32932;SDS011;19444;50.518;10.870;2022-11-20T01:44:48;17.67;;;7.88;;
32932;SDS011;19444;50.518;10.870;2022-11-20T01:47:51;16.15;;;7.22;;
32932;SDS011;19444;50.518;10.870;2022-11-20T01:50:48;17.35;;;8.13;;
32932;SDS011;19444;50.518;10.870;2022-11-20T01:53:48;20.00;;;8.07;;
32932;SDS011;19444;50.518;10.870;2022-11-20T01:56:50;18.23;;;7.93;;
32932;SDS011;19444;50.518;10.870;2022-11-20T01:59:52;17.75;;;8.23;;
32932;SDS011;19444;50.518;10.870;2022-11-20T02:03:09;19.42;;;9.20;;
32932;SDS011;19444;50.518;10.870;2022-11-20T02:06:23;21.58;;;9.65;;
32932;SDS011;19444;50.518;10.870;2022-11-20T02:09:29;18.20;;;7.93;;
32932;SDS011;19444;50.518;10.870;2022-11-20T02:12:26;19.55;;;8.05;;
32932;SDS011;19444;50.518;10.870;2022-11-20T02:15:42;16.65;;;7.88;;
32932;SDS011;19444;50.518;10.870;2022-11-20T02:18:40;21.05;;;8.60;;
32932;SDS011;19444;50.518;10.870;2022-11-20T02:25:03;22.27;;;9.15;;
32932;SDS011;19444;50.518;10.870;2022-11-20T02:28:03;21.48;;;9.02;;
32932;SDS011;19444;50.518;10.870;2022-11-20T02:31:01;19.10;;;8.50;;
32932;SDS011;19444;50.518;10.870;2022-11-20T02:33:58;23.05;;;9.65;;
32932;SDS011;19444;50.518;10.870;2022-11-20T02:36:54;20.25;;;9.30;;
32932;SDS011;19444;50.518;10.870;2022-11-20T02:39:53;22.60;;;9.30;;
32932;SDS011;19444;50.518;10.870;2022-11-20T02:42:53;17.65;;;8.43;;
32932;SDS011;19444;50.518;10.870;2022-11-20T02:45:51;20.55;;;8.40;;
32932;SDS011;19444;50.518;10.870;2022-11-20T02:48:48;22.90;;;9.40;;
32932;SDS011;19444;50.518;10.870;2022-11-20T02:51:45;22.70;;;8.65;;
32932;SDS011;19444;50.518;10.870;2022-11-20T02:54:42;16.45;;;7.88;;
32932;SDS011;19444;50.518;10.870;2022-11-20T02:57:39;16.08;;;7.95;;
32932;SDS011;19444;50.518;10.870;2022-11-20T03:00:36;18.42;;;8.68;;
32932;SDS011;19444;50.518;10.870;2022-11-20T03:03:33;17.45;;;7.28;;
32932;SDS011;19444;50.518;10.870;2022-11-20T03:06:30;18.73;;;8.30;;
32932;SDS011;19444;50.518;10.870;2022-11-20T03:09:27;17.80;;;7.78;;
32932;SDS011;19444;50.518;10.870;2022-11-20T03:12:24;20.38;;;8.88;;
32932;SDS011;19444;50.518;10.870;2022-11-20T03:15:22;17.95;;;8.43;;
32932;SDS011;19444;50.518;10.870;2022-11-20T03:18:19;22.40;;;8.95;;
32932;SDS011;19444;50.518;10.870;2022-11-20T03:21:16;22.25;;;8.90;;
32932;SDS011;19444;50.518;10.870;2022-11-20T03:24:13;22.90;;;9.15;;
32932;SDS011;19444;50.518;10.870;2022-11-20T03:27:10;20.25;;;8.70;;
32932;SDS011;19444;50.518;10.870;2022-11-20T03:30:08;25.33;;;9.68;;
32932;SDS011;19444;50.518;10.870;2022-11-20T03:33:05;20.33;;;8.98;;
32932;SDS011;19444;50.518;10.870;2022-11-20T03:36:05;21.92;;;9.80;;
32932;SDS011;19444;50.518;10.870;2022-11-20T03:39:05;20.02;;;7.25;;
32932;SDS011;19444;50.518;10.870;2022-11-20T03:42:03;18.75;;;8.48;;
32932;SDS011;19444;50.518;10.870;2022-11-20T03:45:20;16.05;;;6.18;;
32932;SDS011;19444;50.518;10.870;2022-11-20T03:48:17;22.58;;;8.15;;
32932;SDS011;19444;50.518;10.870;2022-11-20T03:54:13;16.67;;;7.40;;
32932;SDS011;19444;50.518;10.870;2022-11-20T03:57:10;15.48;;;7.22;;
32932;SDS011;19444;50.518;10.870;2022-11-20T04:00:07;17.42;;;7.57;;
32932;SDS011;19444;50.518;10.870;2022-11-20T04:03:04;16.95;;;7.85;;
32932;SDS011;19444;50.518;10.870;2022-11-20T04:06:02;18.48;;;8.82;;
32932;SDS011;19444;50.518;10.870;2022-11-20T04:09:09;17.90;;;8.57;;
32932;SDS011;19444;50.518;10.870;2022-11-20T04:12:06;16.02;;;8.00;;
32932;SDS011;19444;50.518;10.870;2022-11-20T04:15:03;23.50;;;10.52;;
32932;SDS011;19444;50.518;10.870;2022-11-20T04:18:00;17.58;;;7.93;;
32932;SDS011;19444;50.518;10.870;2022-11-20T04:20:57;24.50;;;10.35;;
32932;SDS011;19444;50.518;10.870;2022-11-20T04:23:56;24.15;;;9.90;;
32932;SDS011;19444;50.518;10.870;2022-11-20T04:26:53;32.35;;;12.85;;
32932;SDS011;19444;50.518;10.870;2022-11-20T04:29:50;24.45;;;11.73;;
32932;SDS011;19444;50.518;10.870;2022-11-20T04:32:47;24.67;;;10.82;;
32932;SDS011;19444;50.518;10.870;2022-11-20T04:35:44;26.05;;;11.50;;
32932;SDS011;19444;50.518;10.870;2022-11-20T04:38:44;24.55;;;11.93;;
32932;SDS011;19444;50.518;10.870;2022-11-20T04:41:41;24.90;;;10.60;;
32932;SDS011;19444;50.518;10.870;2022-11-20T04:44:38;29.85;;;11.68;;
32932;SDS011;19444;50.518;10.870;2022-11-20T04:47:35;21.42;;;10.60;;
32932;SDS011;19444;50.518;10.870;2022-11-20T04:50:32;13.38;;;7.68;;
32932;SDS011;19444;50.518;10.870;2022-11-20T04:53:29;19.80;;;8.63;;
32932;SDS011;19444;50.518;10.870;2022-11-20T04:56:26;22.08;;;10.43;;
32932;SDS011;19444;50.518;10.870;2022-11-20T04:59:23;28.33;;;12.65;;
32932;SDS011;19444;50.518;10.870;2022-11-20T05:02:20;26.65;;;10.75;;
32932;SDS011;19444;50.518;10.870;2022-11-20T05:05:17;32.88;;;14.48;;
32932;SDS011;19444;50.518;10.870;2022-11-20T05:08:14;30.92;;;13.25;;
32932;SDS011;19444;50.518;10.870;2022-11-20T05:11:12;23.42;;;11.95;;
32932;SDS011;19444;50.518;10.870;2022-11-20T05:14:12;23.90;;;11.73;;
32932;SDS011;19444;50.518;10.870;2022-11-20T05:17:10;26.42;;;11.43;;
32932;SDS011;19444;50.518;10.870;2022-11-20T05:20:08;20.65;;;10.32;;
32932;SDS011;19444;50.518;10.870;2022-11-20T05:23:06;22.60;;;10.30;;
32932;SDS011;19444;50.518;10.870;2022-11-20T05:26:03;20.48;;;9.32;;
32932;SDS011;19444;50.518;10.870;2022-11-20T05:29:02;24.48;;;10.68;;
32932;SDS011;19444;50.518;10.870;2022-11-20T05:31:59;25.77;;;11.07;;
32932;SDS011;19444;50.518;10.870;2022-11-20T05:34:56;23.92;;;9.75;;
32932;SDS011;19444;50.518;10.870;2022-11-20T05:37:53;22.65;;;10.07;;
32932;SDS011;19444;50.518;10.870;2022-11-20T05:40:50;22.48;;;10.73;;
32932;SDS011;19444;50.518;10.870;2022-11-20T05:43:47;24.63;;;11.00;;
32932;SDS011;19444;50.518;10.870;2022-11-20T05:46:45;24.33;;;11.75;;
32932;SDS011;19444;50.518;10.870;2022-11-20T05:49:42;25.23;;;11.30;;
32932;SDS011;19444;50.518;10.870;2022-11-20T05:52:40;22.20;;;10.23;;
32932;SDS011;19444;50.518;10.870;2022-11-20T05:55:37;16.17;;;7.90;;
32932;SDS011;19444;50.518;10.870;2022-11-20T05:58:34;19.85;;;9.65;;
32932;SDS011;19444;50.518;10.870;2022-11-20T06:01:31;23.88;;;9.52;;
32932;SDS011;19444;50.518;10.870;2022-11-20T06:04:28;23.08;;;9.80;;
32932;SDS011;19444;50.518;10.870;2022-11-20T06:07:25;23.77;;;10.52;;
32932;SDS011;19444;50.518;10.870;2022-11-20T06:10:22;21.52;;;9.88;;
32932;SDS011;19444;50.518;10.870;2022-11-20T06:13:19;25.10;;;11.07;;
32932;SDS011;19444;50.518;10.870;2022-11-20T06:16:17;25.63;;;11.60;;
32932;SDS011;19444;50.518;10.870;2022-11-20T06:19:15;24.55;;;10.70;;
32932;SDS011;19444;50.518;10.870;2022-11-20T06:22:12;21.45;;;10.90;;
32932;SDS011;19444;50.518;10.870;2022-11-20T06:25:09;25.50;;;11.55;;
32932;SDS011;19444;50.518;10.870;2022-11-20T06:28:06;23.63;;;11.70;;
32932;SDS011;19444;50.518;10.870;2022-11-20T06:31:05;23.58;;;11.05;;
32932;SDS011;19444;50.518;10.870;2022-11-20T06:34:03;32.05;;;13.23;;
32932;SDS011;19444;50.518;10.870;2022-11-20T06:37:02;34.97;;;13.87;;
32932;SDS011;19444;50.518;10.870;2022-11-20T06:39:59;29.15;;;12.43;;
32932;SDS011;19444;50.518;10.870;2022-11-20T06:42:55;34.03;;;15.05;;
32932;SDS011;19444;50.518;10.870;2022-11-20T06:45:55;22.38;;;10.65;;
32932;SDS011;19444;50.518;10.870;2022-11-20T06:48:54;27.08;;;12.10;;
32932;SDS011;19444;50.518;10.870;2022-11-20T06:51:51;32.40;;;14.63;;
32932;SDS011;19444;50.518;10.870;2022-11-20T06:54:47;34.78;;;15.25;;
32932;SDS011;19444;50.518;10.870;2022-11-20T06:57:44;32.38;;;14.88;;
32932;SDS011;19444;50.518;10.870;2022-11-20T07:00:43;33.42;;;14.38;;
32932;SDS011;19444;50.518;10.870;2022-11-20T07:03:41;44.92;;;21.70;;
32932;SDS011;19444;50.518;10.870;2022-11-20T07:06:38;35.10;;;14.63;;
32932;SDS011;19444;50.518;10.870;2022-11-20T07:09:35;47.40;;;21.15;;
32932;SDS011;19444;50.518;10.870;2022-11-20T07:12:32;35.25;;;14.30;;
32932;SDS011;19444;50.518;10.870;2022-11-20T07:15:29;25.60;;;11.82;;
32932;SDS011;19444;50.518;10.870;2022-11-20T07:18:26;34.22;;;14.85;;
32932;SDS011;19444;50.518;10.870;2022-11-20T07:21:23;72.47;;;26.83;;
32932;SDS011;19444;50.518;10.870;2022-11-20T07:24:20;49.70;;;21.00;;
32932;SDS011;19444;50.518;10.870;2022-11-20T07:27:17;76.15;;;30.98;;
32932;SDS011;19444;50.518;10.870;2022-11-20T07:30:14;66.90;;;28.58;;
32932;SDS011;19444;50.518;10.870;2022-11-20T07:33:12;63.17;;;26.00;;
32932;SDS011;19444;50.518;10.870;2022-11-20T07:36:09;52.95;;;21.80;;
32932;SDS011;19444;50.518;10.870;2022-11-20T07:39:06;61.33;;;21.38;;
32932;SDS011;19444;50.518;10.870;2022-11-20T07:42:02;50.83;;;17.98;;
32932;SDS011;19444;50.518;10.870;2022-11-20T07:44:59;52.30;;;19.40;;
32932;SDS011;19444;50.518;10.870;2022-11-20T07:47:56;46.03;;;17.60;;
32932;SDS011;19444;50.518;10.870;2022-11-20T07:50:54;54.47;;;21.98;;
32932;SDS011;19444;50.518;10.870;2022-11-20T07:53:52;62.78;;;24.58;;
32932;SDS011;19444;50.518;10.870;2022-11-20T07:56:49;93.88;;;33.60;;
32932;SDS011;19444;50.518;10.870;2022-11-20T07:59:46;91.55;;;39.67;;
32932;SDS011;19444;50.518;10.870;2022-11-20T08:02:43;65.22;;;27.40;;
32932;SDS011;19444;50.518;10.870;2022-11-20T08:05:40;76.82;;;35.40;;
32932;SDS011;19444;50.518;10.870;2022-11-20T08:08:37;52.22;;;22.85;;
32932;SDS011;19444;50.518;10.870;2022-11-20T08:11:38;47.33;;;23.30;;
32932;SDS011;19444;50.518;10.870;2022-11-20T08:14:53;31.40;;;12.90;;
32932;SDS011;19444;50.518;10.870;2022-11-20T08:17:58;47.85;;;20.15;;
32932;SDS011;19444;50.518;10.870;2022-11-20T08:21:23;48.55;;;19.88;;
32932;SDS011;19444;50.518;10.870;2022-11-20T08:24:20;40.75;;;20.02;;
32932;SDS011;19444;50.518;10.870;2022-11-20T08:27:17;45.28;;;17.77;;
32932;SDS011;19444;50.518;10.870;2022-11-20T08:30:14;67.00;;;26.88;;
32932;SDS011;19444;50.518;10.870;2022-11-20T08:33:12;44.78;;;20.88;;
32932;SDS011;19444;50.518;10.870;2022-11-20T08:36:09;49.20;;;21.50;;
32932;SDS011;19444;50.518;10.870;2022-11-20T08:39:06;53.95;;;23.95;;
32932;SDS011;19444;50.518;10.870;2022-11-20T08:42:06;79.90;;;36.05;;
32932;SDS011;19444;50.518;10.870;2022-11-20T08:45:04;77.35;;;31.65;;
32932;SDS011;19444;50.518;10.870;2022-11-20T08:48:02;68.15;;;29.35;;
32932;SDS011;19444;50.518;10.870;2022-11-20T08:51:00;79.40;;;35.08;;
32932;SDS011;19444;50.518;10.870;2022-11-20T08:53:57;85.93;;;34.65;;
32932;SDS011;19444;50.518;10.870;2022-11-20T08:56:54;77.97;;;34.72;;
32932;SDS011;19444;50.518;10.870;2022-11-20T08:59:51;63.92;;;24.58;;
32932;SDS011;19444;50.518;10.870;2022-11-20T09:03:04;63.58;;;23.77;;
32932;SDS011;19444;50.518;10.870;2022-11-20T09:06:02;52.47;;;21.23;;
32932;SDS011;19444;50.518;10.870;2022-11-20T09:09:02;58.35;;;26.13;;
32932;SDS011;19444;50.518;10.870;2022-11-20T09:12:02;59.70;;;29.15;;
32932;SDS011;19444;50.518;10.870;2022-11-20T09:14:59;70.57;;;33.80;;
32932;SDS011;19444;50.518;10.870;2022-11-20T09:18:00;65.78;;;31.38;;
32932;SDS011;19444;50.518;10.870;2022-11-20T09:21:00;48.35;;;20.52;;
32932;SDS011;19444;50.518;10.870;2022-11-20T09:23:59;71.28;;;29.08;;
32932;SDS011;19444;50.518;10.870;2022-11-20T09:26:56;63.50;;;27.58;;
32932;SDS011;19444;50.518;10.870;2022-11-20T09:29:53;57.75;;;22.40;;
32932;SDS011;19444;50.518;10.870;2022-11-20T09:32:49;75.80;;;27.23;;
32932;SDS011;19444;50.518;10.870;2022-11-20T09:35:46;64.68;;;24.52;;
32932;SDS011;19444;50.518;10.870;2022-11-20T09:38:44;79.60;;;31.65;;
32932;SDS011;19444;50.518;10.870;2022-11-20T09:45:20;65.80;;;30.55;;
32932;SDS011;19444;50.518;10.870;2022-11-20T09:52:32;75.60;;;32.20;;
32932;SDS011;19444;50.518;10.870;2022-11-20T09:55:56;73.90;;;30.55;;
32932;SDS011;19444;50.518;10.870;2022-11-20T09:58:57;51.83;;;20.88;;
32932;SDS011;19444;50.518;10.870;2022-11-20T10:01:59;43.00;;;17.25;;
32932;SDS011;19444;50.518;10.870;2022-11-20T10:05:00;42.03;;;16.77;;
32932;SDS011;19444;50.518;10.870;2022-11-20T10:08:28;44.40;;;18.10;;
32932;SDS011;19444;50.518;10.870;2022-11-20T10:11:45;59.55;;;27.10;;
32932;SDS011;19444;50.518;10.870;2022-11-20T10:25:20;39.45;;;19.20;;
32932;SDS011;19444;50.518;10.870;2022-11-20T10:31:56;52.72;;;21.92;;
32932;SDS011;19444;50.518;10.870;2022-11-20T10:35:00;49.03;;;20.98;;
32932;SDS011;19444;50.518;10.870;2022-11-20T10:38:20;35.53;;;16.67;;
32932;SDS011;19444;50.518;10.870;2022-11-20T10:41:44;61.63;;;24.38;;
32932;SDS011;19444;50.518;10.870;2022-11-20T10:44:52;55.28;;;24.60;;
32932;SDS011;19444;50.518;10.870;2022-11-20T10:48:09;53.45;;;24.95;;
32932;SDS011;19444;50.518;10.870;2022-11-20T10:51:24;46.20;;;20.58;;
32932;SDS011;19444;50.518;10.870;2022-11-20T10:54:47;42.78;;;19.15;;
32932;SDS011;19444;50.518;10.870;2022-11-20T11:01:30;44.13;;;19.25;;
32932;SDS011;19444;50.518;10.870;2022-11-20T11:04:38;39.53;;;17.60;;
32932;SDS011;19444;50.518;10.870;2022-11-20T11:07:42;38.55;;;15.57;;
32932;SDS011;19444;50.518;10.870;2022-11-20T11:13:48;33.03;;;14.52;;
32932;SDS011;19444;50.518;10.870;2022-11-20T11:16:49;42.53;;;19.10;;
32932;SDS011;19444;50.518;10.870;2022-11-20T11:19:58;40.50;;;18.33;;
32932;SDS011;19444;50.518;10.870;2022-11-20T11:22:57;41.20;;;16.88;;
32932;SDS011;19444;50.518;10.870;2022-11-20T11:25:56;35.42;;;15.25;;
32932;SDS011;19444;50.518;10.870;2022-11-20T11:28:59;47.72;;;20.70;;
32932;SDS011;19444;50.518;10.870;2022-11-20T11:32:11;49.63;;;22.60;;
32932;SDS011;19444;50.518;10.870;2022-11-20T11:39:11;36.15;;;15.73;;
32932;SDS011;19444;50.518;10.870;2022-11-20T11:42:15;36.30;;;14.90;;
32932;SDS011;19444;50.518;10.870;2022-11-20T11:45:15;35.58;;;14.93;;
32932;SDS011;19444;50.518;10.870;2022-11-20T11:48:13;35.83;;;14.63;;
32932;SDS011;19444;50.518;10.870;2022-11-20T11:51:10;41.83;;;18.08;;
32932;SDS011;19444;50.518;10.870;2022-11-20T11:54:14;42.53;;;17.95;;
32932;SDS011;19444;50.518;10.870;2022-11-20T11:57:33;35.97;;;14.52;;
32932;SDS011;19444;50.518;10.870;2022-11-20T12:07:34;43.90;;;19.02;;
32932;SDS011;19444;50.518;10.870;2022-11-20T12:14:45;39.47;;;14.77;;
32932;SDS011;19444;50.518;10.870;2022-11-20T12:17:46;38.67;;;14.63;;
32932;SDS011;19444;50.518;10.870;2022-11-20T12:21:08;28.13;;;11.68;;
32932;SDS011;19444;50.518;10.870;2022-11-20T12:28:11;26.27;;;10.88;;
32932;SDS011;19444;50.518;10.870;2022-11-20T12:31:38;26.52;;;11.48;;
32932;SDS011;19444;50.518;10.870;2022-11-20T12:35:14;31.88;;;12.63;;
32932;SDS011;19444;50.518;10.870;2022-11-20T12:38:58;35.97;;;13.98;;
32932;SDS011;19444;50.518;10.870;2022-11-20T12:42:18;30.30;;;13.02;;
32932;SDS011;19444;50.518;10.870;2022-11-20T12:45:52;28.90;;;12.10;;
32932;SDS011;19444;50.518;10.870;2022-11-20T12:52:53;25.23;;;11.07;;
32932;SDS011;19444;50.518;10.870;2022-11-20T13:06:19;23.33;;;10.02;;
32932;SDS011;19444;50.518;10.870;2022-11-20T13:09:16;19.40;;;9.15;;
32932;SDS011;19444;50.518;10.870;2022-11-20T13:18:44;24.25;;;12.07;;
32932;SDS011;19444;50.518;10.870;2022-11-20T13:21:42;30.45;;;13.82;;
32932;SDS011;19444;50.518;10.870;2022-11-20T13:24:50;26.40;;;11.57;;
32932;SDS011;19444;50.518;10.870;2022-11-20T13:30:49;36.42;;;17.63;;
32932;SDS011;19444;50.518;10.870;2022-11-20T13:33:49;18.92;;;8.93;;
32932;SDS011;19444;50.518;10.870;2022-11-20T13:36:52;23.50;;;10.80;;
32932;SDS011;19444;50.518;10.870;2022-11-20T13:40:04;20.77;;;9.43;;
32932;SDS011;19444;50.518;10.870;2022-11-20T13:43:26;21.20;;;10.10;;
32932;SDS011;19444;50.518;10.870;2022-11-20T13:46:38;23.63;;;11.77;;
32932;SDS011;19444;50.518;10.870;2022-11-20T13:49:40;31.50;;;15.05;;
32932;SDS011;19444;50.518;10.870;2022-11-20T13:59:41;27.35;;;14.75;;
32932;SDS011;19444;50.518;10.870;2022-11-20T14:03:11;41.42;;;19.35;;
32932;SDS011;19444;50.518;10.870;2022-11-20T14:06:43;21.05;;;9.30;;
32932;SDS011;19444;50.518;10.870;2022-11-20T14:09:50;25.90;;;11.10;;
32932;SDS011;19444;50.518;10.870;2022-11-20T14:12:55;28.90;;;14.88;;
32932;SDS011;19444;50.518;10.870;2022-11-20T14:15:56;33.47;;;17.52;;
32932;SDS011;19444;50.518;10.870;2022-11-20T14:18:54;46.97;;;22.73;;
32932;SDS011;19444;50.518;10.870;2022-11-20T14:21:53;43.67;;;23.20;;
32932;SDS011;19444;50.518;10.870;2022-11-20T14:28:18;42.45;;;21.50;;
32932;SDS011;19444;50.518;10.870;2022-11-20T14:31:24;34.03;;;15.18;;
32932;SDS011;19444;50.518;10.870;2022-11-20T14:34:30;32.25;;;15.13;;
32932;SDS011;19444;50.518;10.870;2022-11-20T14:37:33;36.13;;;17.40;;
32932;SDS011;19444;50.518;10.870;2022-11-20T14:40:35;28.17;;;13.65;;
32932;SDS011;19444;50.518;10.870;2022-11-20T14:43:32;27.65;;;13.73;;
32932;SDS011;19444;50.518;10.870;2022-11-20T14:46:32;32.50;;;14.65;;
32932;SDS011;19444;50.518;10.870;2022-11-20T14:49:30;34.65;;;15.85;;
32932;SDS011;19444;50.518;10.870;2022-11-20T14:52:28;30.13;;;15.00;;
32932;SDS011;19444;50.518;10.870;2022-11-20T14:55:31;30.20;;;14.32;;
32932;SDS011;19444;50.518;10.870;2022-11-20T14:58:33;24.58;;;12.40;;
32932;SDS011;19444;50.518;10.870;2022-11-20T15:01:31;30.88;;;13.32;;
32932;SDS011;19444;50.518;10.870;2022-11-20T15:04:29;36.38;;;15.50;;
32932;SDS011;19444;50.518;10.870;2022-11-20T15:07:27;30.10;;;13.25;;
32932;SDS011;19444;50.518;10.870;2022-11-20T15:10:30;21.00;;;10.00;;
32932;SDS011;19444;50.518;10.870;2022-11-20T15:13:37;30.88;;;13.10;;
32932;SDS011;19444;50.518;10.870;2022-11-20T15:16:35;34.42;;;17.67;;
32932;SDS011;19444;50.518;10.870;2022-11-20T15:19:32;26.33;;;11.30;;
32932;SDS011;19444;50.518;10.870;2022-11-20T15:22:30;27.10;;;13.32;;
32932;SDS011;19444;50.518;10.870;2022-11-20T15:25:27;24.13;;;10.90;;
32932;SDS011;19444;50.518;10.870;2022-11-20T15:28:31;23.40;;;10.32;;
32932;SDS011;19444;50.518;10.870;2022-11-20T15:31:39;29.55;;;14.30;;
32932;SDS011;19444;50.518;10.870;2022-11-20T15:34:39;84.20;;;44.08;;
32932;SDS011;19444;50.518;10.870;2022-11-20T15:37:36;34.45;;;16.60;;
32932;SDS011;19444;50.518;10.870;2022-11-20T15:40:34;25.40;;;12.18;;
32932;SDS011;19444;50.518;10.870;2022-11-20T15:43:32;75.20;;;30.25;;
32932;SDS011;19444;50.518;10.870;2022-11-20T15:46:30;64.63;;;29.00;;
32932;SDS011;19444;50.518;10.870;2022-11-20T15:49:34;77.30;;;34.88;;
32932;SDS011;19444;50.518;10.870;2022-11-20T15:52:31;37.15;;;17.17;;
32932;SDS011;19444;50.518;10.870;2022-11-20T15:55:37;48.92;;;24.98;;
32932;SDS011;19444;50.518;10.870;2022-11-20T15:58:34;31.40;;;15.75;;
32932;SDS011;19444;50.518;10.870;2022-11-20T16:01:31;26.58;;;12.90;;
32932;SDS011;19444;50.518;10.870;2022-11-20T16:04:28;31.05;;;14.82;;
32932;SDS011;19444;50.518;10.870;2022-11-20T16:07:25;24.60;;;11.05;;
32932;SDS011;19444;50.518;10.870;2022-11-20T16:10:22;26.40;;;12.60;;
32932;SDS011;19444;50.518;10.870;2022-11-20T16:13:19;26.65;;;11.60;;
32932;SDS011;19444;50.518;10.870;2022-11-20T16:16:35;28.40;;;12.82;;
32932;SDS011;19444;50.518;10.870;2022-11-20T16:19:34;28.67;;;11.80;;
32932;SDS011;19444;50.518;10.870;2022-11-20T16:22:31;28.15;;;12.70;;
32932;SDS011;19444;50.518;10.870;2022-11-20T16:25:28;29.60;;;13.15;;
32932;SDS011;19444;50.518;10.870;2022-11-20T16:28:25;28.67;;;12.82;;
32932;SDS011;19444;50.518;10.870;2022-11-20T16:31:22;32.05;;;13.32;;
32932;SDS011;19444;50.518;10.870;2022-11-20T16:34:19;28.08;;;12.90;;
32932;SDS011;19444;50.518;10.870;2022-11-20T16:37:15;31.83;;;14.57;;
32932;SDS011;19444;50.518;10.870;2022-11-20T16:40:12;32.50;;;14.23;;
32932;SDS011;19444;50.518;10.870;2022-11-20T16:43:10;28.60;;;13.82;;
32932;SDS011;19444;50.518;10.870;2022-11-20T16:46:09;37.17;;;16.93;;
32932;SDS011;19444;50.518;10.870;2022-11-20T16:49:10;36.20;;;17.45;;
32932;SDS011;19444;50.518;10.870;2022-11-20T16:52:09;36.08;;;16.08;;
32932;SDS011;19444;50.518;10.870;2022-11-20T16:55:06;34.15;;;15.73;;
32932;SDS011;19444;50.518;10.870;2022-11-20T16:58:03;34.22;;;15.68;;
32932;SDS011;19444;50.518;10.870;2022-11-20T17:01:06;35.20;;;17.10;;
32932;SDS011;19444;50.518;10.870;2022-11-20T17:04:06;39.38;;;17.98;;
32932;SDS011;19444;50.518;10.870;2022-11-20T17:07:02;38.97;;;18.83;;
32932;SDS011;19444;50.518;10.870;2022-11-20T17:10:03;41.22;;;18.92;;
32932;SDS011;19444;50.518;10.870;2022-11-20T17:13:01;37.75;;;17.38;;
32932;SDS011;19444;50.518;10.870;2022-11-20T17:16:01;41.95;;;20.35;;
32932;SDS011;19444;50.518;10.870;2022-11-20T17:19:00;39.92;;;18.48;;
32932;SDS011;19444;50.518;10.870;2022-11-20T17:21:59;41.58;;;19.77;;
32932;SDS011;19444;50.518;10.870;2022-11-20T17:24:56;42.58;;;21.52;;
32932;SDS011;19444;50.518;10.870;2022-11-20T17:27:53;41.60;;;20.38;;
32932;SDS011;19444;50.518;10.870;2022-11-20T17:30:50;52.08;;;23.25;;
32932;SDS011;19444;50.518;10.870;2022-11-20T17:33:46;39.67;;;17.90;;
32932;SDS011;19444;50.518;10.870;2022-11-20T17:36:43;40.95;;;19.02;;
32932;SDS011;19444;50.518;10.870;2022-11-20T17:39:41;44.38;;;19.95;;
32932;SDS011;19444;50.518;10.870;2022-11-20T17:42:39;43.47;;;19.52;;
32932;SDS011;19444;50.518;10.870;2022-11-20T17:45:36;53.53;;;25.40;;
32932;SDS011;19444;50.518;10.870;2022-11-20T17:48:33;46.78;;;22.58;;
32932;SDS011;19444;50.518;10.870;2022-11-20T17:51:31;58.08;;;29.02;;
32932;SDS011;19444;50.518;10.870;2022-11-20T17:54:30;80.03;;;36.58;;
32932;SDS011;19444;50.518;10.870;2022-11-20T17:57:27;96.82;;;41.45;;
32932;SDS011;19444;50.518;10.870;2022-11-20T18:00:42;71.30;;;32.83;;
32932;SDS011;19444;50.518;10.870;2022-11-20T18:03:39;42.72;;;21.48;;
32932;SDS011;19444;50.518;10.870;2022-11-20T18:06:36;42.72;;;20.65;;
32932;SDS011;19444;50.518;10.870;2022-11-20T18:09:33;44.13;;;20.65;;
32932;SDS011;19444;50.518;10.870;2022-11-20T18:12:30;49.08;;;20.17;;
32932;SDS011;19444;50.518;10.870;2022-11-20T18:15:27;43.75;;;19.38;;
32932;SDS011;19444;50.518;10.870;2022-11-20T18:18:25;35.20;;;17.83;;
32932;SDS011;19444;50.518;10.870;2022-11-20T18:21:22;48.00;;;22.20;;
32932;SDS011;19444;50.518;10.870;2022-11-20T18:24:20;41.15;;;18.95;;
32932;SDS011;19444;50.518;10.870;2022-11-20T18:27:18;47.85;;;22.00;;
32932;SDS011;19444;50.518;10.870;2022-11-20T18:30:16;47.10;;;22.70;;
32932;SDS011;19444;50.518;10.870;2022-11-20T18:33:13;35.70;;;15.88;;
32932;SDS011;19444;50.518;10.870;2022-11-20T18:39:15;68.95;;;30.35;;
32932;SDS011;19444;50.518;10.870;2022-11-20T18:42:13;89.07;;;46.22;;
32932;SDS011;19444;50.518;10.870;2022-11-20T18:45:29;63.67;;;30.60;;
32932;SDS011;19444;50.518;10.870;2022-11-20T18:48:26;67.97;;;30.95;;
32932;SDS011;19444;50.518;10.870;2022-11-20T18:51:23;69.25;;;32.53;;
32932;SDS011;19444;50.518;10.870;2022-11-20T18:54:20;61.35;;;27.80;;
32932;SDS011;19444;50.518;10.870;2022-11-20T18:57:18;52.70;;;24.85;;